sensor_id;sensor_type;location;lat;lon;timestamp;P1;durP1;ratioP1;P2;durP2;ratioP2
49237;SDS011;35069;47.906;1.892;2023-02-13T00:00:04;27.67;;;15.77;;
49237;SDS011;35069;47.906;1.892;2023-02-13T00:02:32;28.70;;;16.33;;
49237;SDS011;35069;47.906;1.892;2023-02-13T00:04:58;27.50;;;16.38;;
49237;SDS011;35069;47.906;1.892;2023-02-13T00:07:23;26.75;;;15.20;;
49237;SDS011;35069;47.906;1.892;2023-02-13T00:09:49;24.95;;;16.30;;
49237;SDS011;35069;47.906;1.892;2023-02-13T00:12:15;26.73;;;16.65;;
49237;SDS011;35069;47.906;1.892;2023-02-13T00:14:40;27.98;;;16.70;;
49237;SDS011;35069;47.906;1.892;2023-02-13T00:17:06;29.83;;;18.08;;
49237;SDS011;35069;47.906;1.892;2023-02-13T00:19:32;34.10;;;19.08;;
49237;SDS011;35069;47.906;1.892;2023-02-13T00:21:57;31.33;;;18.70;;
49237;SDS011;35069;47.906;1.892;2023-02-13T00:24:23;35.50;;;20.08;;
49237;SDS011;35069;47.906;1.892;2023-02-13T00:26:49;35.28;;;19.15;;
49237;SDS011;35069;47.906;1.892;2023-02-13T00:29:14;35.97;;;19.60;;
49237;SDS011;35069;47.906;1.892;2023-02-13T00:31:40;33.20;;;18.73;;
49237;SDS011;35069;47.906;1.892;2023-02-13T00:34:06;32.33;;;18.27;;
49237;SDS011;35069;47.906;1.892;2023-02-13T00:36:32;32.30;;;18.52;;
49237;SDS011;35069;47.906;1.892;2023-02-13T00:38:57;30.92;;;17.55;;
49237;SDS011;35069;47.906;1.892;2023-02-13T00:41:23;27.65;;;16.73;;
49237;SDS011;35069;47.906;1.892;2023-02-13T00:43:48;27.67;;;18.15;;
49237;SDS011;35069;47.906;1.892;2023-02-13T00:46:14;29.20;;;17.52;;
49237;SDS011;35069;47.906;1.892;2023-02-13T00:48:41;27.13;;;17.17;;
49237;SDS011;35069;47.906;1.892;2023-02-13T00:51:06;28.80;;;17.42;;
49237;SDS011;35069;47.906;1.892;2023-02-13T00:53:32;24.58;;;16.77;;
49237;SDS011;35069;47.906;1.892;2023-02-13T00:55:59;26.15;;;17.30;;
49237;SDS011;35069;47.906;1.892;2023-02-13T00:58:25;27.88;;;17.17;;
49237;SDS011;35069;47.906;1.892;2023-02-13T01:00:51;23.48;;;16.40;;
49237;SDS011;35069;47.906;1.892;2023-02-13T01:03:18;30.60;;;17.40;;
49237;SDS011;35069;47.906;1.892;2023-02-13T01:05:45;23.58;;;15.90;;
49237;SDS011;35069;47.906;1.892;2023-02-13T01:08:11;31.27;;;17.27;;
49237;SDS011;35069;47.906;1.892;2023-02-13T01:10:37;26.58;;;18.63;;
49237;SDS011;35069;47.906;1.892;2023-02-13T01:13:04;30.02;;;18.05;;
49237;SDS011;35069;47.906;1.892;2023-02-13T01:15:30;26.67;;;17.25;;
49237;SDS011;35069;47.906;1.892;2023-02-13T01:17:57;26.85;;;16.73;;
49237;SDS011;35069;47.906;1.892;2023-02-13T01:20:23;31.52;;;18.08;;
49237;SDS011;35069;47.906;1.892;2023-02-13T01:22:49;28.05;;;17.50;;
49237;SDS011;35069;47.906;1.892;2023-02-13T01:25:15;24.33;;;16.48;;
49237;SDS011;35069;47.906;1.892;2023-02-13T01:27:41;28.67;;;17.50;;
49237;SDS011;35069;47.906;1.892;2023-02-13T01:30:07;34.38;;;18.20;;
49237;SDS011;35069;47.906;1.892;2023-02-13T01:32:38;29.95;;;18.67;;
49237;SDS011;35069;47.906;1.892;2023-02-13T01:35:05;31.00;;;18.63;;
49237;SDS011;35069;47.906;1.892;2023-02-13T01:37:31;30.80;;;18.92;;
49237;SDS011;35069;47.906;1.892;2023-02-13T01:39:57;30.13;;;17.65;;
49237;SDS011;35069;47.906;1.892;2023-02-13T01:42:26;30.85;;;17.25;;
49237;SDS011;35069;47.906;1.892;2023-02-13T01:44:55;28.70;;;18.17;;
49237;SDS011;35069;47.906;1.892;2023-02-13T01:47:34;30.75;;;18.55;;
49237;SDS011;35069;47.906;1.892;2023-02-13T01:50:11;28.92;;;17.98;;
49237;SDS011;35069;47.906;1.892;2023-02-13T01:52:42;33.00;;;19.00;;
49237;SDS011;35069;47.906;1.892;2023-02-13T01:55:12;31.00;;;17.77;;
49237;SDS011;35069;47.906;1.892;2023-02-13T01:57:39;31.33;;;19.13;;
49237;SDS011;35069;47.906;1.892;2023-02-13T02:00:09;31.05;;;18.15;;
49237;SDS011;35069;47.906;1.892;2023-02-13T02:02:42;29.00;;;18.90;;
49237;SDS011;35069;47.906;1.892;2023-02-13T02:05:10;33.05;;;18.10;;
49237;SDS011;35069;47.906;1.892;2023-02-13T02:07:37;29.13;;;18.20;;
49237;SDS011;35069;47.906;1.892;2023-02-13T02:10:07;30.65;;;18.08;;
49237;SDS011;35069;47.906;1.892;2023-02-13T02:12:52;28.90;;;17.67;;
49237;SDS011;35069;47.906;1.892;2023-02-13T02:15:27;30.75;;;18.58;;
49237;SDS011;35069;47.906;1.892;2023-02-13T02:17:53;31.52;;;19.55;;
49237;SDS011;35069;47.906;1.892;2023-02-13T02:26:08;28.08;;;18.20;;
49237;SDS011;35069;47.906;1.892;2023-02-13T02:39:45;30.25;;;18.00;;
49237;SDS011;35069;47.906;1.892;2023-02-13T02:53:41;31.63;;;18.92;;
49237;SDS011;35069;47.906;1.892;2023-02-13T02:56:19;31.63;;;18.70;;
49237;SDS011;35069;47.906;1.892;2023-02-13T02:59:12;31.67;;;18.90;;
49237;SDS011;35069;47.906;1.892;2023-02-13T03:02:00;29.80;;;17.45;;
49237;SDS011;35069;47.906;1.892;2023-02-13T03:04:46;35.28;;;19.75;;
49237;SDS011;35069;47.906;1.892;2023-02-13T03:07:34;32.05;;;19.58;;
49237;SDS011;35069;47.906;1.892;2023-02-13T03:10:00;29.50;;;18.48;;
49237;SDS011;35069;47.906;1.892;2023-02-13T03:13:00;32.38;;;20.75;;
49237;SDS011;35069;47.906;1.892;2023-02-13T03:15:46;31.50;;;19.67;;
49237;SDS011;35069;47.906;1.892;2023-02-13T03:18:35;33.20;;;20.00;;
49237;SDS011;35069;47.906;1.892;2023-02-13T03:21:26;35.35;;;21.38;;
49237;SDS011;35069;47.906;1.892;2023-02-13T03:24:16;32.78;;;19.50;;
49237;SDS011;35069;47.906;1.892;2023-02-13T03:30:07;36.97;;;19.40;;
49237;SDS011;35069;47.906;1.892;2023-02-13T03:33:12;33.53;;;19.92;;
49237;SDS011;35069;47.906;1.892;2023-02-13T03:39:27;33.00;;;18.55;;
49237;SDS011;35069;47.906;1.892;2023-02-13T03:41:47;33.42;;;20.85;;
49237;SDS011;35069;47.906;1.892;2023-02-13T03:44:32;32.20;;;21.13;;
49237;SDS011;35069;47.906;1.892;2023-02-13T03:47:03;32.60;;;19.98;;
49237;SDS011;35069;47.906;1.892;2023-02-13T03:49:35;31.20;;;19.80;;
49237;SDS011;35069;47.906;1.892;2023-02-13T03:57:58;30.08;;;17.30;;
49237;SDS011;35069;47.906;1.892;2023-02-13T04:00:48;31.92;;;18.85;;
49237;SDS011;35069;47.906;1.892;2023-02-13T04:06:06;32.08;;;20.85;;
49237;SDS011;35069;47.906;1.892;2023-02-13T04:11:06;28.67;;;17.35;;
49237;SDS011;35069;47.906;1.892;2023-02-13T04:13:43;34.38;;;20.77;;
49237;SDS011;35069;47.906;1.892;2023-02-13T04:16:22;30.50;;;18.67;;
49237;SDS011;35069;47.906;1.892;2023-02-13T04:18:54;35.72;;;19.65;;
49237;SDS011;35069;47.906;1.892;2023-02-13T04:21:21;32.85;;;18.63;;
49237;SDS011;35069;47.906;1.892;2023-02-13T04:23:48;33.22;;;20.35;;
49237;SDS011;35069;47.906;1.892;2023-02-13T04:26:17;33.58;;;20.45;;
49237;SDS011;35069;47.906;1.892;2023-02-13T04:28:45;30.13;;;18.92;;
49237;SDS011;35069;47.906;1.892;2023-02-13T04:31:11;37.35;;;21.30;;
49237;SDS011;35069;47.906;1.892;2023-02-13T04:33:37;34.20;;;20.45;;
49237;SDS011;35069;47.906;1.892;2023-02-13T04:36:02;35.45;;;19.60;;
49237;SDS011;35069;47.906;1.892;2023-02-13T04:38:28;34.38;;;19.33;;
49237;SDS011;35069;47.906;1.892;2023-02-13T04:40:54;33.97;;;20.25;;
49237;SDS011;35069;47.906;1.892;2023-02-13T04:43:20;34.22;;;20.75;;
49237;SDS011;35069;47.906;1.892;2023-02-13T04:45:48;34.53;;;20.25;;
49237;SDS011;35069;47.906;1.892;2023-02-13T04:48:14;38.35;;;21.30;;
49237;SDS011;35069;47.906;1.892;2023-02-13T04:50:40;34.83;;;20.70;;
49237;SDS011;35069;47.906;1.892;2023-02-13T04:53:06;35.15;;;19.40;;
49237;SDS011;35069;47.906;1.892;2023-02-13T04:55:31;34.92;;;19.85;;
49237;SDS011;35069;47.906;1.892;2023-02-13T04:57:57;32.90;;;20.48;;
49237;SDS011;35069;47.906;1.892;2023-02-13T05:00:24;34.53;;;20.13;;
49237;SDS011;35069;47.906;1.892;2023-02-13T05:02:50;37.10;;;21.70;;
49237;SDS011;35069;47.906;1.892;2023-02-13T05:05:17;34.95;;;20.77;;
49237;SDS011;35069;47.906;1.892;2023-02-13T05:07:43;32.88;;;20.20;;
49237;SDS011;35069;47.906;1.892;2023-02-13T05:10:09;32.88;;;19.67;;
49237;SDS011;35069;47.906;1.892;2023-02-13T05:12:36;41.20;;;21.40;;
49237;SDS011;35069;47.906;1.892;2023-02-13T05:15:02;32.20;;;19.25;;
49237;SDS011;35069;47.906;1.892;2023-02-13T05:17:28;34.13;;;18.75;;
49237;SDS011;35069;47.906;1.892;2023-02-13T05:19:54;30.90;;;18.95;;
49237;SDS011;35069;47.906;1.892;2023-02-13T05:22:20;32.03;;;19.88;;
49237;SDS011;35069;47.906;1.892;2023-02-13T05:25:04;29.65;;;19.42;;
49237;SDS011;35069;47.906;1.892;2023-02-13T05:27:29;35.60;;;20.80;;
49237;SDS011;35069;47.906;1.892;2023-02-13T05:29:56;32.85;;;20.35;;
49237;SDS011;35069;47.906;1.892;2023-02-13T05:32:22;34.13;;;19.90;;
49237;SDS011;35069;47.906;1.892;2023-02-13T05:34:47;35.88;;;21.17;;
49237;SDS011;35069;47.906;1.892;2023-02-13T05:37:13;41.05;;;22.90;;
49237;SDS011;35069;47.906;1.892;2023-02-13T05:39:38;37.03;;;21.42;;
49237;SDS011;35069;47.906;1.892;2023-02-13T05:42:04;32.33;;;21.27;;
49237;SDS011;35069;47.906;1.892;2023-02-13T05:44:30;36.85;;;22.35;;
49237;SDS011;35069;47.906;1.892;2023-02-13T05:46:56;32.40;;;20.67;;
49237;SDS011;35069;47.906;1.892;2023-02-13T05:49:21;43.60;;;23.63;;
49237;SDS011;35069;47.906;1.892;2023-02-13T05:51:47;30.92;;;19.63;;
49237;SDS011;35069;47.906;1.892;2023-02-13T05:54:14;37.83;;;22.88;;
49237;SDS011;35069;47.906;1.892;2023-02-13T05:56:39;36.72;;;22.25;;
49237;SDS011;35069;47.906;1.892;2023-02-13T05:59:06;39.55;;;23.20;;
49237;SDS011;35069;47.906;1.892;2023-02-13T06:01:32;33.35;;;22.65;;
49237;SDS011;35069;47.906;1.892;2023-02-13T06:03:58;36.65;;;21.88;;
49237;SDS011;35069;47.906;1.892;2023-02-13T06:06:23;39.33;;;22.42;;
49237;SDS011;35069;47.906;1.892;2023-02-13T06:08:49;39.75;;;22.45;;
49237;SDS011;35069;47.906;1.892;2023-02-13T06:11:15;37.45;;;21.58;;
49237;SDS011;35069;47.906;1.892;2023-02-13T06:13:41;35.85;;;21.25;;
49237;SDS011;35069;47.906;1.892;2023-02-13T06:16:07;40.38;;;22.38;;
49237;SDS011;35069;47.906;1.892;2023-02-13T06:18:34;39.55;;;22.25;;
49237;SDS011;35069;47.906;1.892;2023-02-13T06:21:00;37.20;;;21.02;;
49237;SDS011;35069;47.906;1.892;2023-02-13T06:23:26;35.88;;;22.27;;
49237;SDS011;35069;47.906;1.892;2023-02-13T06:25:51;33.25;;;21.88;;
49237;SDS011;35069;47.906;1.892;2023-02-13T06:28:17;34.00;;;20.40;;
49237;SDS011;35069;47.906;1.892;2023-02-13T06:30:43;32.22;;;20.95;;
49237;SDS011;35069;47.906;1.892;2023-02-13T06:33:08;32.72;;;19.25;;
49237;SDS011;35069;47.906;1.892;2023-02-13T06:35:34;33.38;;;18.85;;
49237;SDS011;35069;47.906;1.892;2023-02-13T06:37:59;29.83;;;18.13;;
49237;SDS011;35069;47.906;1.892;2023-02-13T06:40:25;33.40;;;18.45;;
49237;SDS011;35069;47.906;1.892;2023-02-13T06:42:51;27.75;;;16.55;;
49237;SDS011;35069;47.906;1.892;2023-02-13T06:45:16;26.98;;;16.05;;
49237;SDS011;35069;47.906;1.892;2023-02-13T06:47:42;25.25;;;16.52;;
49237;SDS011;35069;47.906;1.892;2023-02-13T06:50:10;25.48;;;17.92;;
49237;SDS011;35069;47.906;1.892;2023-02-13T06:52:37;31.50;;;17.70;;
49237;SDS011;35069;47.906;1.892;2023-02-13T06:55:03;32.90;;;19.15;;
49237;SDS011;35069;47.906;1.892;2023-02-13T06:57:29;27.60;;;15.80;;
49237;SDS011;35069;47.906;1.892;2023-02-13T06:59:59;38.80;;;17.30;;
49237;SDS011;35069;47.906;1.892;2023-02-13T07:02:27;36.35;;;17.58;;
49237;SDS011;35069;47.906;1.892;2023-02-13T07:04:53;36.65;;;17.77;;
49237;SDS011;35069;47.906;1.892;2023-02-13T07:07:18;30.98;;;15.43;;
49237;SDS011;35069;47.906;1.892;2023-02-13T07:09:44;54.88;;;17.30;;
49237;SDS011;35069;47.906;1.892;2023-02-13T07:12:09;28.45;;;15.13;;
49237;SDS011;35069;47.906;1.892;2023-02-13T07:14:35;40.38;;;16.48;;
49237;SDS011;35069;47.906;1.892;2023-02-13T07:17:01;37.70;;;15.65;;
49237;SDS011;35069;47.906;1.892;2023-02-13T07:19:26;39.38;;;15.45;;
49237;SDS011;35069;47.906;1.892;2023-02-13T07:21:52;27.90;;;15.77;;
49237;SDS011;35069;47.906;1.892;2023-02-13T07:24:17;31.67;;;16.75;;
49237;SDS011;35069;47.906;1.892;2023-02-13T07:26:43;28.48;;;16.10;;
49237;SDS011;35069;47.906;1.892;2023-02-13T07:29:08;32.53;;;15.95;;
49237;SDS011;35069;47.906;1.892;2023-02-13T07:31:34;39.13;;;16.95;;
49237;SDS011;35069;47.906;1.892;2023-02-13T07:34:00;25.83;;;16.13;;
49237;SDS011;35069;47.906;1.892;2023-02-13T07:36:26;27.30;;;14.10;;
49237;SDS011;35069;47.906;1.892;2023-02-13T07:38:52;31.67;;;14.68;;
49237;SDS011;35069;47.906;1.892;2023-02-13T07:41:18;27.00;;;15.65;;
49237;SDS011;35069;47.906;1.892;2023-02-13T07:43:44;29.17;;;16.50;;
49237;SDS011;35069;47.906;1.892;2023-02-13T07:46:10;29.63;;;16.45;;
49237;SDS011;35069;47.906;1.892;2023-02-13T07:48:36;27.52;;;16.75;;
49237;SDS011;35069;47.906;1.892;2023-02-13T07:51:02;24.02;;;15.38;;
49237;SDS011;35069;47.906;1.892;2023-02-13T07:53:29;20.80;;;14.25;;
49237;SDS011;35069;47.906;1.892;2023-02-13T07:55:54;29.95;;;15.63;;
49237;SDS011;35069;47.906;1.892;2023-02-13T07:58:20;26.55;;;14.48;;
49237;SDS011;35069;47.906;1.892;2023-02-13T08:00:46;21.83;;;15.73;;
49237;SDS011;35069;47.906;1.892;2023-02-13T08:03:11;20.52;;;14.02;;
49237;SDS011;35069;47.906;1.892;2023-02-13T08:05:37;25.23;;;14.65;;
49237;SDS011;35069;47.906;1.892;2023-02-13T08:08:03;21.80;;;12.10;;
49237;SDS011;35069;47.906;1.892;2023-02-13T08:10:29;19.67;;;12.40;;
49237;SDS011;35069;47.906;1.892;2023-02-13T08:13:13;21.27;;;12.65;;
49237;SDS011;35069;47.906;1.892;2023-02-13T08:15:40;21.63;;;12.80;;
49237;SDS011;35069;47.906;1.892;2023-02-13T08:18:08;18.88;;;13.25;;
49237;SDS011;35069;47.906;1.892;2023-02-13T08:20:35;20.95;;;13.85;;
49237;SDS011;35069;47.906;1.892;2023-02-13T08:23:01;21.65;;;13.63;;
49237;SDS011;35069;47.906;1.892;2023-02-13T08:25:28;21.20;;;14.00;;
49237;SDS011;35069;47.906;1.892;2023-02-13T08:27:54;23.65;;;15.18;;
49237;SDS011;35069;47.906;1.892;2023-02-13T08:30:19;25.00;;;14.40;;
49237;SDS011;35069;47.906;1.892;2023-02-13T08:32:45;25.55;;;15.38;;
49237;SDS011;35069;47.906;1.892;2023-02-13T08:35:11;23.13;;;15.23;;
49237;SDS011;35069;47.906;1.892;2023-02-13T08:37:36;26.45;;;16.17;;
49237;SDS011;35069;47.906;1.892;2023-02-13T08:40:02;28.88;;;14.88;;
49237;SDS011;35069;47.906;1.892;2023-02-13T08:42:28;27.77;;;16.13;;
49237;SDS011;35069;47.906;1.892;2023-02-13T08:44:54;22.10;;;14.52;;
49237;SDS011;35069;47.906;1.892;2023-02-13T08:47:19;29.00;;;16.00;;
49237;SDS011;35069;47.906;1.892;2023-02-13T08:49:45;24.27;;;15.80;;
49237;SDS011;35069;47.906;1.892;2023-02-13T08:52:10;20.02;;;13.85;;
49237;SDS011;35069;47.906;1.892;2023-02-13T08:54:36;18.48;;;12.88;;
49237;SDS011;35069;47.906;1.892;2023-02-13T08:57:02;20.80;;;14.68;;
49237;SDS011;35069;47.906;1.892;2023-02-13T08:59:27;25.73;;;14.48;;
49237;SDS011;35069;47.906;1.892;2023-02-13T09:01:53;26.58;;;15.73;;
49237;SDS011;35069;47.906;1.892;2023-02-13T09:04:18;25.42;;;14.98;;
49237;SDS011;35069;47.906;1.892;2023-02-13T09:06:44;22.27;;;15.13;;
49237;SDS011;35069;47.906;1.892;2023-02-13T09:09:10;25.90;;;15.48;;
49237;SDS011;35069;47.906;1.892;2023-02-13T09:11:35;22.48;;;14.90;;
49237;SDS011;35069;47.906;1.892;2023-02-13T09:14:01;23.85;;;15.52;;
49237;SDS011;35069;47.906;1.892;2023-02-13T09:16:28;24.20;;;15.20;;
49237;SDS011;35069;47.906;1.892;2023-02-13T09:18:53;20.77;;;14.70;;
49237;SDS011;35069;47.906;1.892;2023-02-13T09:21:20;21.98;;;15.55;;
49237;SDS011;35069;47.906;1.892;2023-02-13T09:23:47;21.67;;;14.65;;
49237;SDS011;35069;47.906;1.892;2023-02-13T09:26:14;21.15;;;14.95;;
49237;SDS011;35069;47.906;1.892;2023-02-13T09:28:40;42.03;;;19.70;;
49237;SDS011;35069;47.906;1.892;2023-02-13T09:31:06;37.20;;;16.48;;
49237;SDS011;35069;47.906;1.892;2023-02-13T09:33:33;22.45;;;15.52;;
49237;SDS011;35069;47.906;1.892;2023-02-13T09:36:06;21.92;;;15.13;;
49237;SDS011;35069;47.906;1.892;2023-02-13T09:38:33;24.77;;;15.65;;
49237;SDS011;35069;47.906;1.892;2023-02-13T09:41:00;25.25;;;15.23;;
49237;SDS011;35069;47.906;1.892;2023-02-13T09:43:45;25.43;;;17.07;;
49237;SDS011;35069;47.906;1.892;2023-02-13T09:48:49;31.45;;;18.23;;
49237;SDS011;35069;47.906;1.892;2023-02-13T09:51:18;33.03;;;18.23;;
49237;SDS011;35069;47.906;1.892;2023-02-13T09:54:04;26.38;;;14.60;;
49237;SDS011;35069;47.906;1.892;2023-02-13T09:56:39;33.50;;;16.88;;
49237;SDS011;35069;47.906;1.892;2023-02-13T10:02:18;23.20;;;15.80;;
49237;SDS011;35069;47.906;1.892;2023-02-13T10:16:11;26.37;;;16.63;;
49237;SDS011;35069;47.906;1.892;2023-02-13T10:18:48;24.45;;;17.52;;
49237;SDS011;35069;47.906;1.892;2023-02-13T10:21:20;25.33;;;17.10;;
49237;SDS011;35069;47.906;1.892;2023-02-13T10:26:19;22.55;;;15.35;;
49237;SDS011;35069;47.906;1.892;2023-02-13T10:29:06;24.02;;;16.08;;
49237;SDS011;35069;47.906;1.892;2023-02-13T10:31:57;22.85;;;16.38;;
49237;SDS011;35069;47.906;1.892;2023-02-13T10:34:30;22.17;;;15.90;;
49237;SDS011;35069;47.906;1.892;2023-02-13T10:37:02;21.40;;;16.08;;
49237;SDS011;35069;47.906;1.892;2023-02-13T10:39:33;26.77;;;17.50;;
49237;SDS011;35069;47.906;1.892;2023-02-13T10:42:07;21.60;;;16.30;;
49237;SDS011;35069;47.906;1.892;2023-02-13T10:50:18;21.80;;;16.80;;
49237;SDS011;35069;47.906;1.892;2023-02-13T10:55:43;24.27;;;17.15;;
49237;SDS011;35069;47.906;1.892;2023-02-13T11:01:08;26.67;;;18.02;;
49237;SDS011;35069;47.906;1.892;2023-02-13T11:03:41;27.55;;;19.15;;
49237;SDS011;35069;47.906;1.892;2023-02-13T11:06:11;26.08;;;19.45;;
49237;SDS011;35069;47.906;1.892;2023-02-13T11:08:43;25.27;;;17.98;;
49237;SDS011;35069;47.906;1.892;2023-02-13T11:14:20;24.38;;;17.83;;
49237;SDS011;35069;47.906;1.892;2023-02-13T11:16:56;26.45;;;18.70;;
49237;SDS011;35069;47.906;1.892;2023-02-13T11:19:31;26.95;;;19.90;;
49237;SDS011;35069;47.906;1.892;2023-02-13T11:22:12;24.52;;;18.40;;
49237;SDS011;35069;47.906;1.892;2023-02-13T11:24:52;27.52;;;18.17;;
49237;SDS011;35069;47.906;1.892;2023-02-13T11:27:22;25.60;;;18.35;;
49237;SDS011;35069;47.906;1.892;2023-02-13T11:29:53;30.47;;;17.83;;
49237;SDS011;35069;47.906;1.892;2023-02-13T11:32:30;27.95;;;18.73;;
49237;SDS011;35069;47.906;1.892;2023-02-13T11:34:57;29.67;;;20.27;;
49237;SDS011;35069;47.906;1.892;2023-02-13T11:37:50;24.10;;;18.02;;
49237;SDS011;35069;47.906;1.892;2023-02-13T11:40:39;31.52;;;20.00;;
49237;SDS011;35069;47.906;1.892;2023-02-13T11:43:13;26.17;;;19.27;;
49237;SDS011;35069;47.906;1.892;2023-02-13T11:45:43;29.38;;;19.67;;
49237;SDS011;35069;47.906;1.892;2023-02-13T11:48:19;26.83;;;20.10;;
49237;SDS011;35069;47.906;1.892;2023-02-13T11:50:50;28.45;;;20.35;;
49237;SDS011;35069;47.906;1.892;2023-02-13T11:53:18;27.42;;;19.73;;
49237;SDS011;35069;47.906;1.892;2023-02-13T11:58:39;28.85;;;21.65;;
49237;SDS011;35069;47.906;1.892;2023-02-13T12:01:10;24.38;;;19.00;;
49237;SDS011;35069;47.906;1.892;2023-02-13T12:03:56;26.02;;;19.73;;
49237;SDS011;35069;47.906;1.892;2023-02-13T12:06:26;27.70;;;19.83;;
49237;SDS011;35069;47.906;1.892;2023-02-13T12:08:52;27.67;;;19.27;;
49237;SDS011;35069;47.906;1.892;2023-02-13T12:14:17;26.75;;;19.65;;
49237;SDS011;35069;47.906;1.892;2023-02-13T12:16:47;29.13;;;19.88;;
49237;SDS011;35069;47.906;1.892;2023-02-13T12:19:19;28.80;;;20.33;;
49237;SDS011;35069;47.906;1.892;2023-02-13T12:22:12;28.38;;;21.17;;
49237;SDS011;35069;47.906;1.892;2023-02-13T12:31:23;27.90;;;19.35;;
49237;SDS011;35069;47.906;1.892;2023-02-13T12:42:40;26.30;;;19.20;;
49237;SDS011;35069;47.906;1.892;2023-02-13T12:58:33;29.80;;;20.17;;
49237;SDS011;35069;47.906;1.892;2023-02-13T13:10:03;31.38;;;19.42;;
49237;SDS011;35069;47.906;1.892;2023-02-13T13:15:46;28.92;;;18.00;;
49237;SDS011;35069;47.906;1.892;2023-02-13T13:21:16;28.85;;;18.75;;
49237;SDS011;35069;47.906;1.892;2023-02-13T13:23:45;30.63;;;19.73;;
49237;SDS011;35069;47.906;1.892;2023-02-13T13:26:20;34.30;;;18.23;;
49237;SDS011;35069;47.906;1.892;2023-02-13T13:29:01;27.38;;;18.38;;
49237;SDS011;35069;47.906;1.892;2023-02-13T13:31:36;29.77;;;18.80;;
49237;SDS011;35069;47.906;1.892;2023-02-13T13:34:05;31.60;;;20.08;;
49237;SDS011;35069;47.906;1.892;2023-02-13T13:36:44;37.65;;;18.90;;
49237;SDS011;35069;47.906;1.892;2023-02-13T13:42:25;32.08;;;18.05;;
49237;SDS011;35069;47.906;1.892;2023-02-13T13:47:46;26.13;;;17.38;;
49237;SDS011;35069;47.906;1.892;2023-02-13T13:50:31;28.83;;;17.67;;
49237;SDS011;35069;47.906;1.892;2023-02-13T13:58:36;28.52;;;15.95;;
49237;SDS011;35069;47.906;1.892;2023-02-13T14:03:39;24.45;;;15.25;;
49237;SDS011;35069;47.906;1.892;2023-02-13T14:06:09;28.52;;;15.75;;
49237;SDS011;35069;47.906;1.892;2023-02-13T14:11:04;23.58;;;15.32;;
49237;SDS011;35069;47.906;1.892;2023-02-13T14:13:35;24.83;;;15.25;;
49237;SDS011;35069;47.906;1.892;2023-02-13T14:16:03;23.45;;;15.35;;
49237;SDS011;35069;47.906;1.892;2023-02-13T14:21:02;25.95;;;15.20;;
49237;SDS011;35069;47.906;1.892;2023-02-13T14:28:40;26.75;;;16.02;;
49237;SDS011;35069;47.906;1.892;2023-02-13T14:31:07;27.65;;;15.75;;
49237;SDS011;35069;47.906;1.892;2023-02-13T14:33:46;27.10;;;15.07;;
49237;SDS011;35069;47.906;1.892;2023-02-13T14:36:28;24.48;;;14.85;;
49237;SDS011;35069;47.906;1.892;2023-02-13T14:39:03;28.58;;;16.08;;
49237;SDS011;35069;47.906;1.892;2023-02-13T14:42:20;23.58;;;16.10;;
49237;SDS011;35069;47.906;1.892;2023-02-13T14:47:04;32.85;;;17.13;;
49237;SDS011;35069;47.906;1.892;2023-02-13T14:49:44;25.10;;;14.30;;
49237;SDS011;35069;47.906;1.892;2023-02-13T14:52:14;25.45;;;14.20;;
49237;SDS011;35069;47.906;1.892;2023-02-13T14:54:47;23.30;;;14.57;;
49237;SDS011;35069;47.906;1.892;2023-02-13T14:57:17;23.90;;;14.43;;
49237;SDS011;35069;47.906;1.892;2023-02-13T14:59:47;27.27;;;15.18;;
49237;SDS011;35069;47.906;1.892;2023-02-13T15:02:18;24.50;;;15.20;;
49237;SDS011;35069;47.906;1.892;2023-02-13T15:04:47;27.15;;;15.75;;
49237;SDS011;35069;47.906;1.892;2023-02-13T15:07:22;23.27;;;13.70;;
49237;SDS011;35069;47.906;1.892;2023-02-13T15:10:22;25.80;;;15.02;;
49237;SDS011;35069;47.906;1.892;2023-02-13T15:13:11;26.63;;;14.82;;
49237;SDS011;35069;47.906;1.892;2023-02-13T15:15:39;26.52;;;14.23;;
49237;SDS011;35069;47.906;1.892;2023-02-13T15:18:10;23.73;;;15.13;;
49237;SDS011;35069;47.906;1.892;2023-02-13T15:20:42;23.23;;;14.98;;
49237;SDS011;35069;47.906;1.892;2023-02-13T15:23:15;28.00;;;15.52;;
49237;SDS011;35069;47.906;1.892;2023-02-13T15:25:45;27.15;;;15.43;;
49237;SDS011;35069;47.906;1.892;2023-02-13T15:28:18;25.58;;;14.43;;
49237;SDS011;35069;47.906;1.892;2023-02-13T15:31:20;25.67;;;16.85;;
49237;SDS011;35069;47.906;1.892;2023-02-13T15:33:48;30.60;;;17.17;;
49237;SDS011;35069;47.906;1.892;2023-02-13T15:36:25;31.58;;;16.73;;
49237;SDS011;35069;47.906;1.892;2023-02-13T15:38:58;28.65;;;15.73;;
49237;SDS011;35069;47.906;1.892;2023-02-13T15:41:32;25.63;;;16.25;;
49237;SDS011;35069;47.906;1.892;2023-02-13T15:44:01;25.38;;;15.32;;
49237;SDS011;35069;47.906;1.892;2023-02-13T15:46:28;28.65;;;15.93;;
49237;SDS011;35069;47.906;1.892;2023-02-13T15:49:06;26.55;;;16.25;;
49237;SDS011;35069;47.906;1.892;2023-02-13T15:51:34;28.60;;;16.05;;
49237;SDS011;35069;47.906;1.892;2023-02-13T15:54:04;34.70;;;17.20;;
49237;SDS011;35069;47.906;1.892;2023-02-13T15:56:32;30.40;;;17.00;;
49237;SDS011;35069;47.906;1.892;2023-02-13T15:58:59;29.48;;;15.45;;
49237;SDS011;35069;47.906;1.892;2023-02-13T16:01:25;28.00;;;15.65;;
49237;SDS011;35069;47.906;1.892;2023-02-13T16:03:53;25.70;;;14.73;;
49237;SDS011;35069;47.906;1.892;2023-02-13T16:06:26;27.95;;;16.15;;
49237;SDS011;35069;47.906;1.892;2023-02-13T16:08:56;25.58;;;15.32;;
49237;SDS011;35069;47.906;1.892;2023-02-13T16:13:51;30.20;;;17.10;;
49237;SDS011;35069;47.906;1.892;2023-02-13T16:17:14;27.23;;;16.58;;
49237;SDS011;35069;47.906;1.892;2023-02-13T16:22:16;31.60;;;15.00;;
49237;SDS011;35069;47.906;1.892;2023-02-13T16:24:49;32.88;;;17.85;;
49237;SDS011;35069;47.906;1.892;2023-02-13T16:27:18;29.25;;;16.00;;
49237;SDS011;35069;47.906;1.892;2023-02-13T16:29:52;30.77;;;17.80;;
49237;SDS011;35069;47.906;1.892;2023-02-13T16:32:30;37.53;;;17.13;;
49237;SDS011;35069;47.906;1.892;2023-02-13T16:37:47;25.92;;;15.00;;
49237;SDS011;35069;47.906;1.892;2023-02-13T16:40:30;32.28;;;16.33;;
49237;SDS011;35069;47.906;1.892;2023-02-13T16:46:10;29.60;;;15.30;;
49237;SDS011;35069;47.906;1.892;2023-02-13T16:48:42;28.33;;;16.13;;
49237;SDS011;35069;47.906;1.892;2023-02-13T16:51:32;31.13;;;15.68;;
49237;SDS011;35069;47.906;1.892;2023-02-13T16:54:04;34.72;;;16.90;;
49237;SDS011;35069;47.906;1.892;2023-02-13T16:56:36;37.80;;;17.67;;
49237;SDS011;35069;47.906;1.892;2023-02-13T17:01:45;32.60;;;16.60;;
49237;SDS011;35069;47.906;1.892;2023-02-13T17:04:21;33.78;;;17.48;;
49237;SDS011;35069;47.906;1.892;2023-02-13T17:06:52;29.05;;;16.75;;
49237;SDS011;35069;47.906;1.892;2023-02-13T17:09:19;33.10;;;19.10;;
49237;SDS011;35069;47.906;1.892;2023-02-13T17:11:46;37.92;;;19.65;;
49237;SDS011;35069;47.906;1.892;2023-02-13T17:14:15;29.20;;;17.65;;
49237;SDS011;35069;47.906;1.892;2023-02-13T17:16:41;33.25;;;18.67;;
49237;SDS011;35069;47.906;1.892;2023-02-13T17:19:07;31.38;;;17.13;;
49237;SDS011;35069;47.906;1.892;2023-02-13T17:21:32;34.08;;;18.13;;
49237;SDS011;35069;47.906;1.892;2023-02-13T17:23:58;34.97;;;20.13;;
49237;SDS011;35069;47.906;1.892;2023-02-13T17:26:26;47.05;;;27.95;;
49237;SDS011;35069;47.906;1.892;2023-02-13T17:28:51;44.03;;;27.73;;